Terminal Aerodrome Forecast
Issued by NWS Shreveport, LA

Home | Current Version | Previous Version | Text Only | Print | Product List | Glossary On
Versions: 1 2 3 4 5 6 7 8 9 10 11 12 13 14 15 16 17 18 19 20 21 22 23
858
FTUS44 KSHV 282329
TAFMLU
TAF
KMLU 282329Z 2900/2924 18012G18KT P6SM BKN040
     FM290700 15010KT P6SM BKN015
      TEMPO 2908/2912 OVC008
     FM291300 16016G28KT P6SM SCT030
      TEMPO 2913/2916 14012G18KT BKN020=

USA.gov is the U.S. government's official web portal to all federal, state and local government web resources and services.